sensor_id;sensor_type;location;lat;lon;timestamp;P1;durP1;ratioP1;P2;durP2;ratioP2
11604;SDS011;5858;43.076;25.626;2023-05-21T00:02:06;30.90;;;18.80;;
11604;SDS011;5858;43.076;25.626;2023-05-21T00:04:41;29.70;;;18.10;;
11604;SDS011;5858;43.076;25.626;2023-05-21T00:07:10;29.70;;;19.10;;
11604;SDS011;5858;43.076;25.626;2023-05-21T00:09:42;26.57;;;18.23;;
11604;SDS011;5858;43.076;25.626;2023-05-21T00:12:21;32.00;;;17.53;;
11604;SDS011;5858;43.076;25.626;2023-05-21T00:14:49;28.53;;;16.17;;
11604;SDS011;5858;43.076;25.626;2023-05-21T00:17:18;20.30;;;13.70;;
11604;SDS011;5858;43.076;25.626;2023-05-21T00:19:45;19.00;;;11.87;;
11604;SDS011;5858;43.076;25.626;2023-05-21T00:22:14;18.73;;;12.13;;
11604;SDS011;5858;43.076;25.626;2023-05-21T00:24:42;21.90;;;14.47;;
11604;SDS011;5858;43.076;25.626;2023-05-21T00:27:10;19.90;;;11.40;;
11604;SDS011;5858;43.076;25.626;2023-05-21T00:29:37;23.73;;;13.57;;
11604;SDS011;5858;43.076;25.626;2023-05-21T00:32:04;19.67;;;12.63;;
11604;SDS011;5858;43.076;25.626;2023-05-21T00:34:32;18.93;;;13.63;;
11604;SDS011;5858;43.076;25.626;2023-05-21T00:37:02;17.70;;;12.13;;
11604;SDS011;5858;43.076;25.626;2023-05-21T00:39:29;17.30;;;12.87;;
11604;SDS011;5858;43.076;25.626;2023-05-21T00:41:58;21.37;;;14.23;;
11604;SDS011;5858;43.076;25.626;2023-05-21T00:44:25;21.00;;;14.63;;
11604;SDS011;5858;43.076;25.626;2023-05-21T00:46:58;18.27;;;13.17;;
11604;SDS011;5858;43.076;25.626;2023-05-21T00:49:26;22.37;;;13.63;;
11604;SDS011;5858;43.076;25.626;2023-05-21T00:51:53;18.13;;;12.70;;
11604;SDS011;5858;43.076;25.626;2023-05-21T00:54:21;21.30;;;13.97;;
11604;SDS011;5858;43.076;25.626;2023-05-21T00:56:49;24.33;;;15.97;;
11604;SDS011;5858;43.076;25.626;2023-05-21T00:59:18;24.37;;;15.57;;
11604;SDS011;5858;43.076;25.626;2023-05-21T01:01:45;17.53;;;12.90;;
11604;SDS011;5858;43.076;25.626;2023-05-21T01:04:18;23.40;;;15.27;;
11604;SDS011;5858;43.076;25.626;2023-05-21T01:06:45;28.37;;;15.73;;
11604;SDS011;5858;43.076;25.626;2023-05-21T01:09:12;23.70;;;15.93;;
11604;SDS011;5858;43.076;25.626;2023-05-21T01:11:40;28.07;;;16.77;;
11604;SDS011;5858;43.076;25.626;2023-05-21T01:14:11;34.53;;;18.83;;
11604;SDS011;5858;43.076;25.626;2023-05-21T01:16:40;29.87;;;17.87;;
11604;SDS011;5858;43.076;25.626;2023-05-21T01:19:12;31.70;;;19.03;;
11604;SDS011;5858;43.076;25.626;2023-05-21T01:21:43;31.63;;;18.97;;
11604;SDS011;5858;43.076;25.626;2023-05-21T01:24:12;37.47;;;20.67;;
11604;SDS011;5858;43.076;25.626;2023-05-21T01:26:40;37.00;;;22.43;;
11604;SDS011;5858;43.076;25.626;2023-05-21T01:29:08;34.37;;;21.90;;
11604;SDS011;5858;43.076;25.626;2023-05-21T01:31:41;43.47;;;24.87;;
11604;SDS011;5858;43.076;25.626;2023-05-21T01:34:14;39.80;;;23.07;;
11604;SDS011;5858;43.076;25.626;2023-05-21T01:39:36;38.47;;;21.37;;
11604;SDS011;5858;43.076;25.626;2023-05-21T01:42:06;30.47;;;18.37;;
11604;SDS011;5858;43.076;25.626;2023-05-21T01:44:35;26.47;;;15.00;;
11604;SDS011;5858;43.076;25.626;2023-05-21T01:47:04;23.77;;;16.87;;
11604;SDS011;5858;43.076;25.626;2023-05-21T01:49:31;20.97;;;14.03;;
11604;SDS011;5858;43.076;25.626;2023-05-21T01:51:58;24.77;;;15.23;;
11604;SDS011;5858;43.076;25.626;2023-05-21T01:54:26;19.53;;;13.83;;
11604;SDS011;5858;43.076;25.626;2023-05-21T01:56:57;17.50;;;12.27;;
11604;SDS011;5858;43.076;25.626;2023-05-21T01:59:25;26.20;;;14.03;;
11604;SDS011;5858;43.076;25.626;2023-05-21T02:01:54;23.73;;;14.20;;
11604;SDS011;5858;43.076;25.626;2023-05-21T02:04:22;24.97;;;14.10;;
11604;SDS011;5858;43.076;25.626;2023-05-21T02:06:52;23.87;;;15.93;;
11604;SDS011;5858;43.076;25.626;2023-05-21T02:09:19;25.30;;;17.03;;
11604;SDS011;5858;43.076;25.626;2023-05-21T02:11:46;26.87;;;17.00;;
11604;SDS011;5858;43.076;25.626;2023-05-21T02:14:15;22.63;;;16.13;;
11604;SDS011;5858;43.076;25.626;2023-05-21T02:16:42;28.73;;;16.30;;
11604;SDS011;5858;43.076;25.626;2023-05-21T02:19:14;28.40;;;17.03;;
11604;SDS011;5858;43.076;25.626;2023-05-21T02:21:41;26.47;;;17.73;;
11604;SDS011;5858;43.076;25.626;2023-05-21T02:24:12;24.60;;;16.73;;
11604;SDS011;5858;43.076;25.626;2023-05-21T02:26:44;26.60;;;15.40;;
11604;SDS011;5858;43.076;25.626;2023-05-21T02:29:21;20.27;;;14.13;;
11604;SDS011;5858;43.076;25.626;2023-05-21T02:31:48;29.53;;;16.73;;
11604;SDS011;5858;43.076;25.626;2023-05-21T02:34:16;26.57;;;15.70;;
11604;SDS011;5858;43.076;25.626;2023-05-21T02:36:47;23.10;;;15.63;;
11604;SDS011;5858;43.076;25.626;2023-05-21T02:39:16;25.40;;;17.17;;
11604;SDS011;5858;43.076;25.626;2023-05-21T02:41:47;29.33;;;17.30;;
11604;SDS011;5858;43.076;25.626;2023-05-21T02:44:15;26.20;;;18.03;;
11604;SDS011;5858;43.076;25.626;2023-05-21T02:46:44;28.60;;;17.10;;
11604;SDS011;5858;43.076;25.626;2023-05-21T02:49:12;26.77;;;17.53;;
11604;SDS011;5858;43.076;25.626;2023-05-21T02:51:39;30.77;;;19.17;;
11604;SDS011;5858;43.076;25.626;2023-05-21T02:54:06;31.40;;;19.47;;
11604;SDS011;5858;43.076;25.626;2023-05-21T02:56:35;29.87;;;20.43;;
11604;SDS011;5858;43.076;25.626;2023-05-21T02:59:02;28.67;;;19.73;;
11604;SDS011;5858;43.076;25.626;2023-05-21T03:01:29;32.07;;;18.07;;
11604;SDS011;5858;43.076;25.626;2023-05-21T03:04:00;31.33;;;18.43;;
11604;SDS011;5858;43.076;25.626;2023-05-21T03:06:28;28.43;;;18.43;;
11604;SDS011;5858;43.076;25.626;2023-05-21T03:08:56;32.37;;;17.67;;
11604;SDS011;5858;43.076;25.626;2023-05-21T03:11:23;28.03;;;18.77;;
11604;SDS011;5858;43.076;25.626;2023-05-21T03:13:52;31.97;;;19.27;;
11604;SDS011;5858;43.076;25.626;2023-05-21T03:16:21;31.33;;;19.73;;
11604;SDS011;5858;43.076;25.626;2023-05-21T03:18:48;29.07;;;18.47;;
11604;SDS011;5858;43.076;25.626;2023-05-21T03:21:17;24.00;;;17.10;;
11604;SDS011;5858;43.076;25.626;2023-05-21T03:23:46;23.93;;;15.27;;
11604;SDS011;5858;43.076;25.626;2023-05-21T03:26:13;24.43;;;15.43;;
11604;SDS011;5858;43.076;25.626;2023-05-21T03:28:40;21.87;;;14.10;;
11604;SDS011;5858;43.076;25.626;2023-05-21T03:31:07;20.60;;;13.73;;
11604;SDS011;5858;43.076;25.626;2023-05-21T03:33:34;20.43;;;14.27;;
11604;SDS011;5858;43.076;25.626;2023-05-21T03:36:01;24.37;;;14.37;;
11604;SDS011;5858;43.076;25.626;2023-05-21T03:38:30;17.33;;;14.00;;
11604;SDS011;5858;43.076;25.626;2023-05-21T03:40:57;19.63;;;12.90;;
11604;SDS011;5858;43.076;25.626;2023-05-21T03:43:24;21.40;;;13.23;;
11604;SDS011;5858;43.076;25.626;2023-05-21T03:45:51;22.20;;;13.73;;
11604;SDS011;5858;43.076;25.626;2023-05-21T03:48:18;21.07;;;14.60;;
11604;SDS011;5858;43.076;25.626;2023-05-21T03:50:45;23.13;;;14.93;;
11604;SDS011;5858;43.076;25.626;2023-05-21T03:53:12;19.13;;;13.03;;
11604;SDS011;5858;43.076;25.626;2023-05-21T03:55:41;20.77;;;11.83;;
11604;SDS011;5858;43.076;25.626;2023-05-21T03:58:08;15.25;;;10.48;;
11604;SDS011;5858;43.076;25.626;2023-05-21T04:00:38;18.93;;;10.03;;
11604;SDS011;5858;43.076;25.626;2023-05-21T04:03:06;21.08;;;10.57;;
11604;SDS011;5858;43.076;25.626;2023-05-21T04:05:33;17.63;;;10.95;;
11604;SDS011;5858;43.076;25.626;2023-05-21T04:08:00;14.50;;;9.20;;
11604;SDS011;5858;43.076;25.626;2023-05-21T04:10:27;19.38;;;9.85;;
11604;SDS011;5858;43.076;25.626;2023-05-21T04:12:57;13.30;;;8.88;;
11604;SDS011;5858;43.076;25.626;2023-05-21T04:15:25;15.83;;;9.57;;
11604;SDS011;5858;43.076;25.626;2023-05-21T04:17:52;14.17;;;10.17;;
11604;SDS011;5858;43.076;25.626;2023-05-21T04:20:20;14.73;;;10.17;;
11604;SDS011;5858;43.076;25.626;2023-05-21T04:22:47;14.97;;;10.17;;
11604;SDS011;5858;43.076;25.626;2023-05-21T04:25:14;14.40;;;9.67;;
11604;SDS011;5858;43.076;25.626;2023-05-21T04:27:41;15.63;;;10.67;;
11604;SDS011;5858;43.076;25.626;2023-05-21T04:30:13;22.15;;;14.75;;
11604;SDS011;5858;43.076;25.626;2023-05-21T04:32:46;22.53;;;14.70;;
11604;SDS011;5858;43.076;25.626;2023-05-21T04:35:13;19.00;;;12.57;;
11604;SDS011;5858;43.076;25.626;2023-05-21T04:37:40;23.23;;;14.03;;
11604;SDS011;5858;43.076;25.626;2023-05-21T04:40:10;23.20;;;13.80;;
11604;SDS011;5858;43.076;25.626;2023-05-21T04:42:42;28.63;;;16.03;;
11604;SDS011;5858;43.076;25.626;2023-05-21T04:48:22;21.37;;;14.30;;
11604;SDS011;5858;43.076;25.626;2023-05-21T04:50:57;19.90;;;14.90;;
11604;SDS011;5858;43.076;25.626;2023-05-21T04:53:25;20.63;;;13.83;;
11604;SDS011;5858;43.076;25.626;2023-05-21T04:56:04;22.77;;;14.20;;
11604;SDS011;5858;43.076;25.626;2023-05-21T04:58:35;22.23;;;13.10;;
11604;SDS011;5858;43.076;25.626;2023-05-21T05:01:10;17.63;;;13.33;;
11604;SDS011;5858;43.076;25.626;2023-05-21T05:03:53;25.00;;;14.43;;
11604;SDS011;5858;43.076;25.626;2023-05-21T05:06:20;21.23;;;12.30;;
11604;SDS011;5858;43.076;25.626;2023-05-21T05:09:07;20.07;;;13.17;;
11604;SDS011;5858;43.076;25.626;2023-05-21T05:11:37;19.73;;;13.05;;
11604;SDS011;5858;43.076;25.626;2023-05-21T05:14:07;17.47;;;10.93;;
11604;SDS011;5858;43.076;25.626;2023-05-21T05:16:45;15.57;;;9.18;;
11604;SDS011;5858;43.076;25.626;2023-05-21T05:19:19;17.60;;;10.20;;
11604;SDS011;5858;43.076;25.626;2023-05-21T05:21:47;12.70;;;9.30;;
11604;SDS011;5858;43.076;25.626;2023-05-21T05:24:15;11.10;;;9.05;;
11604;SDS011;5858;43.076;25.626;2023-05-21T05:26:44;13.10;;;9.38;;
11604;SDS011;5858;43.076;25.626;2023-05-21T05:29:15;11.73;;;9.18;;
11604;SDS011;5858;43.076;25.626;2023-05-21T05:35:06;13.43;;;8.80;;
11604;SDS011;5858;43.076;25.626;2023-05-21T05:37:34;11.90;;;9.05;;
11604;SDS011;5858;43.076;25.626;2023-05-21T05:40:01;10.32;;;8.43;;
11604;SDS011;5858;43.076;25.626;2023-05-21T05:42:29;12.95;;;9.25;;
11604;SDS011;5858;43.076;25.626;2023-05-21T05:44:56;11.07;;;9.10;;
11604;SDS011;5858;43.076;25.626;2023-05-21T05:47:26;15.65;;;8.77;;
11604;SDS011;5858;43.076;25.626;2023-05-21T05:49:56;12.85;;;8.77;;
11604;SDS011;5858;43.076;25.626;2023-05-21T05:52:25;11.30;;;8.85;;
11604;SDS011;5858;43.076;25.626;2023-05-21T05:55:00;14.15;;;11.00;;
11604;SDS011;5858;43.076;25.626;2023-05-21T05:57:33;18.40;;;12.23;;
11604;SDS011;5858;43.076;25.626;2023-05-21T06:00:09;17.27;;;13.20;;
11604;SDS011;5858;43.076;25.626;2023-05-21T06:02:46;15.50;;;11.88;;
11604;SDS011;5858;43.076;25.626;2023-05-21T06:15:09;13.27;;;11.70;;
11604;SDS011;5858;43.076;25.626;2023-05-21T06:21:13;15.07;;;11.07;;
11604;SDS011;5858;43.076;25.626;2023-05-21T06:23:43;13.85;;;10.38;;
11604;SDS011;5858;43.076;25.626;2023-05-21T06:26:22;15.23;;;10.27;;
11604;SDS011;5858;43.076;25.626;2023-05-21T06:35:56;12.27;;;9.27;;
11604;SDS011;5858;43.076;25.626;2023-05-21T06:38:47;11.60;;;9.05;;
11604;SDS011;5858;43.076;25.626;2023-05-21T06:44:33;14.50;;;8.95;;
11604;SDS011;5858;43.076;25.626;2023-05-21T06:47:20;8.35;;;7.53;;
11604;SDS011;5858;43.076;25.626;2023-05-21T06:50:30;9.93;;;7.78;;
11604;SDS011;5858;43.076;25.626;2023-05-21T06:53:06;8.75;;;7.85;;
11604;SDS011;5858;43.076;25.626;2023-05-21T07:07:42;10.68;;;7.93;;
11604;SDS011;5858;43.076;25.626;2023-05-21T07:08:26;8.40;;;7.10;;
11604;SDS011;5858;43.076;25.626;2023-05-21T07:11:27;10.70;;;7.03;;
11604;SDS011;5858;43.076;25.626;2023-05-21T07:13:56;12.25;;;7.25;;
11604;SDS011;5858;43.076;25.626;2023-05-21T07:16:24;8.95;;;7.45;;
11604;SDS011;5858;43.076;25.626;2023-05-21T07:19:01;9.55;;;7.45;;
11604;SDS011;5858;43.076;25.626;2023-05-21T07:21:31;10.05;;;7.32;;
11604;SDS011;5858;43.076;25.626;2023-05-21T07:23:58;7.20;;;6.50;;
11604;SDS011;5858;43.076;25.626;2023-05-21T07:26:38;9.20;;;6.95;;
11604;SDS011;5858;43.076;25.626;2023-05-21T07:29:09;7.95;;;7.15;;
11604;SDS011;5858;43.076;25.626;2023-05-21T07:31:36;46.40;;;9.43;;
11604;SDS011;5858;43.076;25.626;2023-05-21T07:34:05;10.88;;;6.93;;
11604;SDS011;5858;43.076;25.626;2023-05-21T07:36:32;8.35;;;6.95;;
11604;SDS011;5858;43.076;25.626;2023-05-21T07:39:00;7.93;;;6.60;;
11604;SDS011;5858;43.076;25.626;2023-05-21T07:41:27;8.57;;;6.95;;
11604;SDS011;5858;43.076;25.626;2023-05-21T07:43:54;9.07;;;6.60;;
11604;SDS011;5858;43.076;25.626;2023-05-21T07:46:21;10.27;;;7.30;;
11604;SDS011;5858;43.076;25.626;2023-05-21T07:48:48;10.00;;;7.00;;
11604;SDS011;5858;43.076;25.626;2023-05-21T07:51:16;7.72;;;6.68;;
11604;SDS011;5858;43.076;25.626;2023-05-21T07:53:43;10.88;;;7.30;;
11604;SDS011;5858;43.076;25.626;2023-05-21T07:56:11;9.50;;;7.40;;
11604;SDS011;5858;43.076;25.626;2023-05-21T07:58:44;9.18;;;6.65;;
11604;SDS011;5858;43.076;25.626;2023-05-21T08:01:20;9.38;;;6.82;;
11604;SDS011;5858;43.076;25.626;2023-05-21T08:03:48;11.93;;;8.25;;
11604;SDS011;5858;43.076;25.626;2023-05-21T08:06:31;11.98;;;7.20;;
11604;SDS011;5858;43.076;25.626;2023-05-21T08:09:43;8.65;;;7.35;;
11604;SDS011;5858;43.076;25.626;2023-05-21T08:12:11;8.68;;;7.63;;
11604;SDS011;5858;43.076;25.626;2023-05-21T08:14:43;7.50;;;6.63;;
11604;SDS011;5858;43.076;25.626;2023-05-21T08:17:24;10.32;;;7.05;;
11604;SDS011;5858;43.076;25.626;2023-05-21T08:20:03;7.88;;;6.93;;
11604;SDS011;5858;43.076;25.626;2023-05-21T08:22:49;6.95;;;6.10;;
11604;SDS011;5858;43.076;25.626;2023-05-21T08:25:17;7.72;;;6.03;;
11604;SDS011;5858;43.076;25.626;2023-05-21T08:27:45;6.50;;;5.72;;
11604;SDS011;5858;43.076;25.626;2023-05-21T08:30:13;6.78;;;5.32;;
11604;SDS011;5858;43.076;25.626;2023-05-21T08:32:54;6.25;;;5.50;;
11604;SDS011;5858;43.076;25.626;2023-05-21T08:35:21;7.72;;;5.45;;
11604;SDS011;5858;43.076;25.626;2023-05-21T08:44:30;7.70;;;5.45;;
11604;SDS011;5858;43.076;25.626;2023-05-21T08:47:24;6.53;;;4.68;;
11604;SDS011;5858;43.076;25.626;2023-05-21T08:49:59;8.55;;;4.65;;
11604;SDS011;5858;43.076;25.626;2023-05-21T08:52:30;6.40;;;5.35;;
11604;SDS011;5858;43.076;25.626;2023-05-21T08:58:22;6.85;;;5.25;;
11604;SDS011;5858;43.076;25.626;2023-05-21T09:04:32;8.35;;;5.57;;
11604;SDS011;5858;43.076;25.626;2023-05-21T09:07:03;5.82;;;5.05;;
11604;SDS011;5858;43.076;25.626;2023-05-21T09:09:54;7.13;;;5.55;;
11604;SDS011;5858;43.076;25.626;2023-05-21T09:12:50;6.40;;;5.18;;
11604;SDS011;5858;43.076;25.626;2023-05-21T09:15:32;9.40;;;5.13;;
11604;SDS011;5858;43.076;25.626;2023-05-21T09:18:21;6.57;;;4.97;;
11604;SDS011;5858;43.076;25.626;2023-05-21T09:23:57;6.13;;;4.53;;
11604;SDS011;5858;43.076;25.626;2023-05-21T09:26:30;7.85;;;4.40;;
11604;SDS011;5858;43.076;25.626;2023-05-21T09:29:14;5.40;;;4.32;;
11604;SDS011;5858;43.076;25.626;2023-05-21T09:31:57;4.97;;;3.65;;
11604;SDS011;5858;43.076;25.626;2023-05-21T09:34:43;9.52;;;4.38;;
11604;SDS011;5858;43.076;25.626;2023-05-21T09:37:16;5.25;;;4.28;;
11604;SDS011;5858;43.076;25.626;2023-05-21T09:39:50;5.15;;;4.28;;
11604;SDS011;5858;43.076;25.626;2023-05-21T09:42:21;7.90;;;4.57;;
11604;SDS011;5858;43.076;25.626;2023-05-21T09:44:55;8.05;;;4.63;;
11604;SDS011;5858;43.076;25.626;2023-05-21T09:54:17;7.55;;;4.63;;
11604;SDS011;5858;43.076;25.626;2023-05-21T09:56:49;6.65;;;5.00;;
11604;SDS011;5858;43.076;25.626;2023-05-21T09:59:34;7.47;;;4.68;;
11604;SDS011;5858;43.076;25.626;2023-05-21T10:05:17;8.20;;;4.80;;
11604;SDS011;5858;43.076;25.626;2023-05-21T10:11:43;7.72;;;4.63;;
11604;SDS011;5858;43.076;25.626;2023-05-21T10:14:26;7.28;;;4.22;;
11604;SDS011;5858;43.076;25.626;2023-05-21T10:17:26;6.22;;;4.68;;
11604;SDS011;5858;43.076;25.626;2023-05-21T10:19:58;7.63;;;4.90;;
11604;SDS011;5858;43.076;25.626;2023-05-21T10:22:54;7.35;;;4.32;;
11604;SDS011;5858;43.076;25.626;2023-05-21T10:25:30;5.45;;;4.40;;
11604;SDS011;5858;43.076;25.626;2023-05-21T10:39:01;5.82;;;4.63;;
11604;SDS011;5858;43.076;25.626;2023-05-21T10:41:58;5.32;;;4.70;;
11604;SDS011;5858;43.076;25.626;2023-05-21T10:44:48;6.65;;;4.85;;
11604;SDS011;5858;43.076;25.626;2023-05-21T10:51:14;5.30;;;4.47;;
11604;SDS011;5858;43.076;25.626;2023-05-21T10:53:57;5.07;;;4.50;;
11604;SDS011;5858;43.076;25.626;2023-05-21T10:56:36;6.35;;;5.03;;
11604;SDS011;5858;43.076;25.626;2023-05-21T10:59:11;5.70;;;4.55;;
11604;SDS011;5858;43.076;25.626;2023-05-21T11:01:52;7.07;;;5.15;;
11604;SDS011;5858;43.076;25.626;2023-05-21T11:04:21;6.38;;;4.75;;
11604;SDS011;5858;43.076;25.626;2023-05-21T11:06:48;5.90;;;4.65;;
11604;SDS011;5858;43.076;25.626;2023-05-21T11:09:21;6.28;;;4.80;;
11604;SDS011;5858;43.076;25.626;2023-05-21T11:14:59;6.05;;;4.97;;
11604;SDS011;5858;43.076;25.626;2023-05-21T11:17:48;4.95;;;4.45;;
11604;SDS011;5858;43.076;25.626;2023-05-21T11:20:32;9.30;;;4.90;;
11604;SDS011;5858;43.076;25.626;2023-05-21T11:23:03;5.75;;;4.28;;
11604;SDS011;5858;43.076;25.626;2023-05-21T11:25:31;6.03;;;4.15;;
11604;SDS011;5858;43.076;25.626;2023-05-21T11:28:02;9.13;;;4.85;;
11604;SDS011;5858;43.076;25.626;2023-05-21T11:30:45;8.05;;;4.50;;
11604;SDS011;5858;43.076;25.626;2023-05-21T11:40:53;9.82;;;4.55;;
11604;SDS011;5858;43.076;25.626;2023-05-21T11:43:40;7.07;;;4.70;;
11604;SDS011;5858;43.076;25.626;2023-05-21T11:46:15;6.53;;;4.20;;
11604;SDS011;5858;43.076;25.626;2023-05-21T11:48:44;5.18;;;4.47;;
11604;SDS011;5858;43.076;25.626;2023-05-21T11:51:13;5.57;;;3.90;;
11604;SDS011;5858;43.076;25.626;2023-05-21T11:53:44;7.05;;;4.13;;
11604;SDS011;5858;43.076;25.626;2023-05-21T11:56:13;4.35;;;3.67;;
11604;SDS011;5858;43.076;25.626;2023-05-21T11:58:44;5.20;;;3.88;;
11604;SDS011;5858;43.076;25.626;2023-05-21T12:01:22;5.10;;;4.05;;
11604;SDS011;5858;43.076;25.626;2023-05-21T12:03:52;8.20;;;4.20;;
11604;SDS011;5858;43.076;25.626;2023-05-21T12:06:24;4.80;;;3.55;;
11604;SDS011;5858;43.076;25.626;2023-05-21T12:08:57;4.38;;;3.75;;
11604;SDS011;5858;43.076;25.626;2023-05-21T12:11:27;7.30;;;3.92;;
11604;SDS011;5858;43.076;25.626;2023-05-21T12:13:57;7.40;;;4.25;;
11604;SDS011;5858;43.076;25.626;2023-05-21T12:16:28;4.55;;;4.13;;
11604;SDS011;5858;43.076;25.626;2023-05-21T12:18:58;5.28;;;3.67;;
11604;SDS011;5858;43.076;25.626;2023-05-21T12:21:28;6.30;;;4.15;;
11604;SDS011;5858;43.076;25.626;2023-05-21T12:24:00;6.10;;;4.22;;
11604;SDS011;5858;43.076;25.626;2023-05-21T12:26:33;7.28;;;4.22;;
11604;SDS011;5858;43.076;25.626;2023-05-21T12:29:00;5.53;;;4.20;;
11604;SDS011;5858;43.076;25.626;2023-05-21T12:31:31;5.03;;;4.53;;
11604;SDS011;5858;43.076;25.626;2023-05-21T12:33:58;6.45;;;4.35;;
11604;SDS011;5858;43.076;25.626;2023-05-21T12:36:26;8.88;;;4.75;;
11604;SDS011;5858;43.076;25.626;2023-05-21T12:39:00;5.97;;;4.60;;
11604;SDS011;5858;43.076;25.626;2023-05-21T12:48:38;9.35;;;5.38;;
11604;SDS011;5858;43.076;25.626;2023-05-21T12:51:35;7.53;;;4.32;;
11604;SDS011;5858;43.076;25.626;2023-05-21T12:54:41;4.97;;;4.47;;
11604;SDS011;5858;43.076;25.626;2023-05-21T12:57:14;7.10;;;4.85;;
11604;SDS011;5858;43.076;25.626;2023-05-21T12:59:54;5.63;;;4.32;;
11604;SDS011;5858;43.076;25.626;2023-05-21T13:02:37;5.32;;;4.35;;
11604;SDS011;5858;43.076;25.626;2023-05-21T13:08:53;5.45;;;4.47;;
11604;SDS011;5858;43.076;25.626;2023-05-21T13:14:42;5.75;;;4.50;;
11604;SDS011;5858;43.076;25.626;2023-05-21T13:17:23;5.30;;;4.60;;
11604;SDS011;5858;43.076;25.626;2023-05-21T13:20:06;6.55;;;4.38;;
11604;SDS011;5858;43.076;25.626;2023-05-21T13:27:15;6.68;;;4.55;;
11604;SDS011;5858;43.076;25.626;2023-05-21T13:29:32;7.22;;;5.30;;
11604;SDS011;5858;43.076;25.626;2023-05-21T13:32:22;6.32;;;4.90;;
11604;SDS011;5858;43.076;25.626;2023-05-21T13:40:54;6.88;;;5.10;;
11604;SDS011;5858;43.076;25.626;2023-05-21T13:41:37;9.68;;;5.20;;
11604;SDS011;5858;43.076;25.626;2023-05-21T13:44:23;14.50;;;7.20;;
11604;SDS011;5858;43.076;25.626;2023-05-21T13:46:53;14.77;;;7.80;;
11604;SDS011;5858;43.076;25.626;2023-05-21T13:49:35;12.45;;;7.03;;
11604;SDS011;5858;43.076;25.626;2023-05-21T13:52:14;9.27;;;6.57;;
11604;SDS011;5858;43.076;25.626;2023-05-21T13:54:59;11.82;;;7.07;;
11604;SDS011;5858;43.076;25.626;2023-05-21T13:57:28;14.75;;;7.32;;
11604;SDS011;5858;43.076;25.626;2023-05-21T13:59:57;10.63;;;7.95;;
11604;SDS011;5858;43.076;25.626;2023-05-21T14:02:36;12.32;;;7.88;;
11604;SDS011;5858;43.076;25.626;2023-05-21T14:05:34;10.20;;;7.65;;
11604;SDS011;5858;43.076;25.626;2023-05-21T14:08:03;10.00;;;7.53;;
11604;SDS011;5858;43.076;25.626;2023-05-21T14:10:32;10.55;;;5.65;;
11604;SDS011;5858;43.076;25.626;2023-05-21T14:13:03;8.35;;;4.72;;
11604;SDS011;5858;43.076;25.626;2023-05-21T14:16:01;4.57;;;3.28;;
11604;SDS011;5858;43.076;25.626;2023-05-21T14:18:42;4.22;;;3.78;;
11604;SDS011;5858;43.076;25.626;2023-05-21T14:21:09;7.95;;;3.60;;
11604;SDS011;5858;43.076;25.626;2023-05-21T14:23:51;6.28;;;3.20;;
11604;SDS011;5858;43.076;25.626;2023-05-21T14:26:59;3.70;;;3.20;;
11604;SDS011;5858;43.076;25.626;2023-05-21T14:29:51;3.53;;;3.20;;
11604;SDS011;5858;43.076;25.626;2023-05-21T14:36:29;5.25;;;2.85;;
11604;SDS011;5858;43.076;25.626;2023-05-21T14:39:30;4.45;;;3.10;;
11604;SDS011;5858;43.076;25.626;2023-05-21T14:42:00;4.78;;;2.60;;
11604;SDS011;5858;43.076;25.626;2023-05-21T14:44:29;6.65;;;3.60;;
11604;SDS011;5858;43.076;25.626;2023-05-21T14:46:56;2.83;;;2.60;;
11604;SDS011;5858;43.076;25.626;2023-05-21T14:52:20;3.70;;;2.72;;
11604;SDS011;5858;43.076;25.626;2023-05-21T14:54:47;4.60;;;3.03;;
11604;SDS011;5858;43.076;25.626;2023-05-21T14:57:21;3.92;;;2.65;;
11604;SDS011;5858;43.076;25.626;2023-05-21T14:59:56;4.85;;;2.75;;
11604;SDS011;5858;43.076;25.626;2023-05-21T15:02:24;5.50;;;2.78;;
11604;SDS011;5858;43.076;25.626;2023-05-21T15:04:56;3.88;;;2.58;;
11604;SDS011;5858;43.076;25.626;2023-05-21T15:07:42;3.30;;;2.22;;
11604;SDS011;5858;43.076;25.626;2023-05-21T15:15:56;4.28;;;2.25;;
11604;SDS011;5858;43.076;25.626;2023-05-21T15:18:25;4.43;;;2.10;;
11604;SDS011;5858;43.076;25.626;2023-05-21T15:21:01;2.78;;;1.98;;
11604;SDS011;5858;43.076;25.626;2023-05-21T15:23:31;4.53;;;2.45;;
11604;SDS011;5858;43.076;25.626;2023-05-21T15:25:58;3.15;;;2.20;;
11604;SDS011;5858;43.076;25.626;2023-05-21T15:31:10;4.07;;;2.00;;
11604;SDS011;5858;43.076;25.626;2023-05-21T15:33:40;4.80;;;2.28;;
11604;SDS011;5858;43.076;25.626;2023-05-21T15:36:14;2.03;;;1.88;;
11604;SDS011;5858;43.076;25.626;2023-05-21T15:38:43;4.38;;;2.80;;
11604;SDS011;5858;43.076;25.626;2023-05-21T15:41:10;3.50;;;2.20;;
11604;SDS011;5858;43.076;25.626;2023-05-21T15:43:40;3.00;;;2.05;;
11604;SDS011;5858;43.076;25.626;2023-05-21T15:46:07;3.75;;;1.85;;
11604;SDS011;5858;43.076;25.626;2023-05-21T15:48:35;3.80;;;2.42;;
11604;SDS011;5858;43.076;25.626;2023-05-21T15:51:02;2.95;;;2.40;;
11604;SDS011;5858;43.076;25.626;2023-05-21T15:53:31;2.85;;;2.15;;
11604;SDS011;5858;43.076;25.626;2023-05-21T15:56:20;5.10;;;2.40;;
11604;SDS011;5858;43.076;25.626;2023-05-21T15:58:50;6.22;;;2.80;;
11604;SDS011;5858;43.076;25.626;2023-05-21T16:01:17;3.53;;;2.42;;
11604;SDS011;5858;43.076;25.626;2023-05-21T16:03:44;4.65;;;2.22;;
11604;SDS011;5858;43.076;25.626;2023-05-21T16:06:14;3.78;;;2.33;;
11604;SDS011;5858;43.076;25.626;2023-05-21T16:08:43;3.28;;;2.38;;
11604;SDS011;5858;43.076;25.626;2023-05-21T16:11:10;4.10;;;3.00;;
11604;SDS011;5858;43.076;25.626;2023-05-21T16:13:41;2.92;;;2.60;;
11604;SDS011;5858;43.076;25.626;2023-05-21T16:16:09;3.35;;;2.33;;
11604;SDS011;5858;43.076;25.626;2023-05-21T16:18:36;3.38;;;2.40;;
11604;SDS011;5858;43.076;25.626;2023-05-21T16:21:03;3.95;;;2.60;;
11604;SDS011;5858;43.076;25.626;2023-05-21T16:23:30;2.80;;;2.55;;
11604;SDS011;5858;43.076;25.626;2023-05-21T16:26:05;5.55;;;2.70;;
11604;SDS011;5858;43.076;25.626;2023-05-21T16:28:34;6.45;;;3.50;;
11604;SDS011;5858;43.076;25.626;2023-05-21T16:31:01;4.57;;;3.13;;
11604;SDS011;5858;43.076;25.626;2023-05-21T16:33:29;4.72;;;3.30;;
11604;SDS011;5858;43.076;25.626;2023-05-21T16:35:56;4.07;;;2.50;;
11604;SDS011;5858;43.076;25.626;2023-05-21T16:38:23;3.97;;;2.78;;
11604;SDS011;5858;43.076;25.626;2023-05-21T16:40:50;3.50;;;2.60;;
11604;SDS011;5858;43.076;25.626;2023-05-21T16:43:20;4.00;;;2.58;;
11604;SDS011;5858;43.076;25.626;2023-05-21T16:45:49;5.43;;;2.80;;
11604;SDS011;5858;43.076;25.626;2023-05-21T16:48:17;4.28;;;2.60;;
11604;SDS011;5858;43.076;25.626;2023-05-21T16:50:45;3.95;;;2.40;;
11604;SDS011;5858;43.076;25.626;2023-05-21T16:53:12;4.30;;;2.45;;
11604;SDS011;5858;43.076;25.626;2023-05-21T16:55:39;5.05;;;2.65;;
11604;SDS011;5858;43.076;25.626;2023-05-21T16:58:12;4.78;;;3.58;;
11604;SDS011;5858;43.076;25.626;2023-05-21T17:00:44;4.55;;;3.53;;
11604;SDS011;5858;43.076;25.626;2023-05-21T17:06:03;5.15;;;2.90;;
11604;SDS011;5858;43.076;25.626;2023-05-21T17:08:30;5.55;;;2.80;;
11604;SDS011;5858;43.076;25.626;2023-05-21T17:11:08;6.93;;;3.15;;
11604;SDS011;5858;43.076;25.626;2023-05-21T17:13:36;5.70;;;2.65;;
11604;SDS011;5858;43.076;25.626;2023-05-21T17:16:05;3.08;;;2.45;;
11604;SDS011;5858;43.076;25.626;2023-05-21T17:18:34;4.30;;;3.15;;
11604;SDS011;5858;43.076;25.626;2023-05-21T17:21:20;4.80;;;2.60;;
11604;SDS011;5858;43.076;25.626;2023-05-21T17:23:47;5.20;;;3.00;;
11604;SDS011;5858;43.076;25.626;2023-05-21T17:26:25;5.82;;;2.42;;
11604;SDS011;5858;43.076;25.626;2023-05-21T17:28:52;5.95;;;3.10;;